Time;durP1;ratioP1;P1;durP2;ratioP2;P2;SDS_P1;SDS_P2;PMS_P1;PMS_P2;Temp;Humidity;BMP_temperature;BMP_pressure;BME280_temperature;BME280_humidity;BME280_pressure;Samples;Min_cycle;Max_cycle;Signal;HPM_P1;HPM_P2
2023/02/22 00:01:20;;;;;;;3.30;2.70;;;8.90;99.90;;;;;;4983748;28;20423;-72
2023/02/22 00:03:50;;;;;;;4.67;3.10;;;8.80;99.90;;;;;;4983560;28;20961;-72
2023/02/22 00:06:19;;;;;;;9.83;3.23;;;8.80;99.90;;;;;;4983416;28;20535;-72
2023/02/22 00:08:46;;;;;;;3.63;3.13;;;8.80;99.90;;;;;;4983456;28;20985;-72
2023/02/22 00:11:13;;;;;;;4.70;3.30;;;8.80;99.90;;;;;;4974999;28;20430;-71
2023/02/22 00:13:42;;;;;;;5.03;3.87;;;8.80;99.90;;;;;;4969566;28;20435;-72
2023/02/22 00:16:11;;;;;;;4.70;3.20;;;8.70;99.90;;;;;;4987402;28;20427;-72
2023/02/22 00:18:37;;;;;;;3.67;3.13;;;8.70;99.90;;;;;;4986438;28;20440;-72
2023/02/22 00:21:03;;;;;;;6.03;3.80;;;8.70;99.90;;;;;;4986530;28;20430;-72
2023/02/22 00:23:30;;;;;;;6.20;3.47;;;8.70;99.90;;;;;;4987231;28;20210;-72
2023/02/22 00:25:57;;;;;;;4.03;3.37;;;8.70;99.90;;;;;;4986311;28;20200;-72
2023/02/22 00:28:23;;;;;;;4.07;3.67;;;8.60;99.90;;;;;;4987164;28;20895;-72
2023/02/22 00:30:50;;;;;;;6.67;4.13;;;8.60;99.90;;;;;;4969425;28;20769;-72
2023/02/22 00:33:16;;;;;;;3.87;3.47;;;8.60;99.90;;;;;;4971729;28;20477;-73
2023/02/22 00:35:47;;;;;;;4.37;3.63;;;8.50;99.90;;;;;;4969999;28;20845;-72
2023/02/22 00:38:15;;;;;;;4.83;4.27;;;8.60;99.90;;;;;;4986819;28;20509;-72
2023/02/22 00:40:41;;;;;;;5.73;4.27;;;8.70;99.90;;;;;;4986879;28;20448;-72
2023/02/22 00:43:07;;;;;;;5.03;3.97;;;8.60;99.90;;;;;;4987412;28;20489;-73
2023/02/22 00:45:35;;;;;;;4.60;3.73;;;8.50;99.90;;;;;;4985887;28;20462;-72
2023/02/22 00:48:02;;;;;;;3.97;3.60;;;8.40;99.90;;;;;;4985353;28;20454;-72
2023/02/22 00:50:29;;;;;;;5.47;4.70;;;8.40;99.90;;;;;;4987312;28;20413;-72
2023/02/22 00:52:57;;;;;;;6.10;4.70;;;8.30;99.90;;;;;;4986722;28;20419;-71
2023/02/22 00:55:32;;;;;;;10.93;5.10;;;8.30;99.90;;;;;;4986333;28;20914;-72
2023/02/22 00:57:58;;;;;;;6.83;4.90;;;8.30;99.90;;;;;;4986505;28;20445;-72
2023/02/22 01:00:28;;;;;;;6.60;4.80;;;8.40;99.90;;;;;;4983569;28;20480;-72
2023/02/22 01:02:54;;;;;;;5.10;4.50;;;8.30;99.90;;;;;;4987041;28;20458;-72
2023/02/22 01:05:22;;;;;;;10.30;4.83;;;8.30;99.90;;;;;;4986820;28;21259;-72
2023/02/22 01:07:48;;;;;;;5.50;4.57;;;8.40;99.90;;;;;;4987120;28;20456;-71
2023/02/22 01:10:18;;;;;;;8.93;5.73;;;8.40;99.90;;;;;;4986846;28;20419;-72
2023/02/22 01:12:44;;;;;;;8.23;5.50;;;8.30;99.90;;;;;;4986610;28;20533;-72
2023/02/22 01:15:10;;;;;;;6.50;4.70;;;8.30;99.90;;;;;;4986784;28;20431;-72
2023/02/22 01:17:37;;;;;;;8.33;4.60;;;8.30;99.90;;;;;;4986916;28;21082;-72
2023/02/22 01:20:14;;;;;;;6.80;5.50;;;8.20;99.90;;;;;;4986429;28;20711;-72
2023/02/22 01:22:41;;;;;;;7.20;5.77;;;8.10;99.90;;;;;;4985941;28;20457;-72
2023/02/22 01:25:12;;;;;;;7.83;5.60;;;8.10;99.90;;;;;;4968952;28;20466;-72
2023/02/22 01:27:38;;;;;;;8.23;6.67;;;8.00;99.90;;;;;;4987043;28;20461;-72
2023/02/22 01:30:07;;;;;;;10.10;6.40;;;8.00;99.90;;;;;;4987797;28;20434;-72
2023/02/22 01:32:37;;;;;;;7.00;5.60;;;8.10;99.90;;;;;;4986513;28;20728;-72
2023/02/22 01:35:10;;;;;;;7.33;6.63;;;8.20;99.90;;;;;;4985494;28;20509;-71
2023/02/22 01:37:36;;;;;;;16.13;7.53;;;8.10;99.90;;;;;;4985493;28;20913;-72
2023/02/22 01:40:05;;;;;;;10.53;7.00;;;8.00;99.90;;;;;;4985568;28;20427;-72
2023/02/22 01:42:31;;;;;;;10.07;6.93;;;8.00;99.90;;;;;;4968124;28;20543;-72
2023/02/22 01:45:28;;;;;;;8.43;6.70;;;7.80;99.90;;;;;;4978160;28;20460;-71
2023/02/22 01:47:57;;;;;;;14.90;7.70;;;7.60;99.90;;;;;;4985540;28;20415;-72
2023/02/22 01:50:22;;;;;;;12.63;6.93;;;7.70;99.90;;;;;;4985843;28;20410;-72
2023/02/22 01:52:48;;;;;;;10.50;8.20;;;7.70;99.90;;;;;;4986103;28;20440;-73
2023/02/22 01:55:16;;;;;;;8.80;6.80;;;7.70;99.90;;;;;;4986089;28;20289;-72
2023/02/22 01:57:41;;;;;;;7.73;6.37;;;7.70;99.90;;;;;;4968267;28;20435;-72
2023/02/22 02:00:15;;;;;;;7.63;6.70;;;7.70;99.90;;;;;;4986751;28;20516;-72
2023/02/22 02:02:44;;;;;;;8.03;7.23;;;7.60;99.90;;;;;;4986453;28;20507;-73
2023/02/22 02:05:11;;;;;;;10.10;7.07;;;7.70;99.90;;;;;;4983674;28;20454;-72
2023/02/22 02:07:38;;;;;;;11.73;7.80;;;7.80;99.90;;;;;;4984082;28;20430;-72
2023/02/22 02:10:16;;;;;;;8.43;6.80;;;7.80;99.90;;;;;;4984341;28;20520;-72
2023/02/22 02:12:47;;;;;;;8.77;6.53;;;7.90;99.90;;;;;;4985026;28;20414;-72
2023/02/22 02:15:15;;;;;;;9.53;7.47;;;7.80;99.90;;;;;;4983336;28;20878;-72
2023/02/22 02:17:42;;;;;;;8.67;7.10;;;7.90;99.90;;;;;;4984093;28;20748;-72
2023/02/22 02:20:12;;;;;;;10.23;7.17;;;7.80;99.90;;;;;;4987824;28;20427;-72
2023/02/22 02:23:06;;;;;;;8.23;6.70;;;7.90;99.90;;;;;;4986665;28;20418;-72
2023/02/22 02:25:54;;;;;;;9.37;6.97;;;7.80;99.90;;;;;;4941136;28;20833;-72
2023/02/22 02:28:40;;;;;;;9.40;7.07;;;7.80;99.90;;;;;;4984541;28;20469;-72
2023/02/22 02:31:36;;;;;;;10.00;5.80;;;7.80;99.90;;;;;;4946453;28;20577;-72
2023/02/22 02:34:14;;;;;;;7.23;6.00;;;7.70;99.90;;;;;;4984468;28;20832;-72
2023/02/22 02:37:07;;;;;;;8.40;6.27;;;7.70;99.90;;;;;;4984344;28;20508;-72
2023/02/22 02:39:59;;;;;;;9.57;7.00;;;7.70;99.90;;;;;;4985712;28;20443;-72
2023/02/22 02:42:33;;;;;;;8.63;6.80;;;7.70;99.90;;;;;;4985608;28;20435;-71
2023/02/22 02:45:07;;;;;;;11.00;6.83;;;7.50;99.90;;;;;;4986341;28;20530;-72
2023/02/22 02:47:39;;;;;;;8.83;6.77;;;7.60;99.90;;;;;;4984860;28;20406;-72
2023/02/22 02:50:09;;;;;;;7.43;6.13;;;7.70;99.90;;;;;;4985386;28;20460;-72
2023/02/22 02:52:38;;;;;;;9.40;6.53;;;7.70;99.90;;;;;;4984810;28;20935;-71
2023/02/22 02:55:05;;;;;;;9.63;6.40;;;7.80;99.90;;;;;;4985274;28;20422;-72
2023/02/22 02:57:30;;;;;;;9.03;6.57;;;7.70;99.90;;;;;;4985342;28;20439;-71
2023/02/22 02:59:56;;;;;;;10.03;7.93;;;7.70;99.90;;;;;;4985135;28;20538;-72
2023/02/22 03:02:52;;;;;;;7.47;6.73;;;7.70;99.90;;;;;;4969304;28;20665;-71
2023/02/22 03:05:56;;;;;;;7.20;6.40;;;7.70;99.90;;;;;;4985300;28;20280;-72
2023/02/22 03:08:41;;;;;;;6.80;6.10;;;7.60;99.90;;;;;;4985191;28;20428;-72
2023/02/22 03:11:13;;;;;;;7.53;6.53;;;7.60;99.90;;;;;;4973951;28;20426;-72
2023/02/22 03:14:07;;;;;;;9.80;6.50;;;7.50;99.90;;;;;;4984300;28;20527;-71
2023/02/22 03:16:41;;;;;;;11.27;6.40;;;7.50;99.90;;;;;;4970802;28;20919;-71
2023/02/22 03:19:46;;;;;;;7.83;6.80;;;7.40;99.90;;;;;;4982192;28;20453;-71
2023/02/22 03:22:15;;;;;;;9.40;7.83;;;7.40;99.90;;;;;;4984433;28;20491;-71
2023/02/22 03:25:06;;;;;;;9.80;6.60;;;7.30;99.90;;;;;;4973778;28;20479;-71
2023/02/22 03:27:54;;;;;;;13.30;7.57;;;7.20;99.90;;;;;;4983860;28;20433;-71
2023/02/22 03:30:30;;;;;;;15.00;8.10;;;7.30;99.90;;;;;;4984489;28;20406;-71
2023/02/22 03:33:00;;;;;;;7.47;6.30;;;7.30;99.90;;;;;;4984568;28;20468;-71
2023/02/22 03:35:34;;;;;;;9.80;7.47;;;7.30;99.90;;;;;;4984257;28;20936;-70
2023/02/22 03:38:03;;;;;;;8.43;7.43;;;7.20;99.90;;;;;;4983911;28;20474;-70
2023/02/22 03:40:35;;;;;;;13.53;7.50;;;7.10;99.90;;;;;;4983743;28;20471;-72
2023/02/22 03:43:07;;;;;;;8.70;7.37;;;7.20;99.90;;;;;;4967293;28;21648;-72
2023/02/22 03:45:35;;;;;;;10.23;7.87;;;7.30;99.90;;;;;;4970565;28;20458;-72
2023/02/22 03:48:10;;;;;;;9.10;7.57;;;7.20;99.90;;;;;;4987559;28;20801;-72
2023/02/22 03:50:37;;;;;;;11.53;7.80;;;7.20;99.90;;;;;;4988480;28;20424;-71
2023/02/22 03:53:03;;;;;;;8.67;7.40;;;7.10;99.90;;;;;;4987685;28;20414;-71
2023/02/22 03:55:30;;;;;;;10.13;7.80;;;7.00;99.90;;;;;;4987225;28;20485;-71
2023/02/22 03:57:58;;;;;;;9.83;7.80;;;7.00;99.90;;;;;;4987603;28;20826;-72
2023/02/22 04:00:27;;;;;;;8.97;7.50;;;7.00;99.90;;;;;;4987506;28;20646;-70
2023/02/22 04:02:53;;;;;;;10.00;7.87;;;7.10;99.90;;;;;;4987640;28;20452;-71
2023/02/22 04:05:19;;;;;;;10.53;8.43;;;7.00;99.90;;;;;;4970129;28;20444;-72
2023/02/22 04:07:45;;;;;;;8.83;7.83;;;7.10;99.90;;;;;;4987933;28;20443;-72
2023/02/22 04:10:12;;;;;;;10.60;7.93;;;7.10;99.90;;;;;;4986470;28;20489;-72
2023/02/22 04:12:38;;;;;;;9.17;7.60;;;7.10;99.90;;;;;;4987481;28;20367;-72
2023/02/22 04:15:06;;;;;;;13.00;7.83;;;7.00;99.90;;;;;;4987123;28;20952;-71
2023/02/22 04:17:32;;;;;;;11.23;8.80;;;7.00;99.90;;;;;;4986998;28;20647;-71
2023/02/22 04:19:57;;;;;;;9.77;8.10;;;6.80;99.90;;;;;;4987041;28;20449;-72
2023/02/22 04:22:23;;;;;;;10.20;8.80;;;6.80;99.90;;;;;;4987021;28;20263;-72
2023/02/22 04:24:48;;;;;;;9.10;8.10;;;6.80;99.90;;;;;;4986138;28;20212;-72
2023/02/22 04:27:14;;;;;;;14.10;8.27;;;6.80;99.90;;;;;;4986592;28;20263;-72
2023/02/22 04:29:40;;;;;;;8.90;7.83;;;6.80;99.90;;;;;;4986760;28;20200;-72
2023/02/22 04:32:06;;;;;;;9.00;7.37;;;6.80;99.90;;;;;;4982259;28;20412;-72
2023/02/22 04:34:32;;;;;;;9.97;8.23;;;6.80;99.90;;;;;;4970322;28;20425;-72
2023/02/22 04:36:57;;;;;;;11.33;8.90;;;6.90;99.90;;;;;;4987343;28;20799;-72
2023/02/22 04:39:23;;;;;;;11.30;8.00;;;6.90;99.90;;;;;;4986891;28;20198;-72
2023/02/22 04:41:49;;;;;;;9.10;7.77;;;6.90;99.90;;;;;;4979374;28;20905;-72
2023/02/22 04:44:14;;;;;;;9.80;7.83;;;6.90;99.90;;;;;;4987167;28;20189;-71
2023/02/22 04:46:40;;;;;;;9.90;8.00;;;6.70;99.90;;;;;;4987471;28;20209;-72
2023/02/22 04:49:05;;;;;;;9.27;8.27;;;6.70;99.90;;;;;;4980160;28;20551;-72
2023/02/22 04:51:31;;;;;;;11.50;7.93;;;6.70;99.90;;;;;;4985648;28;20846;-72
2023/02/22 04:53:57;;;;;;;11.27;9.33;;;6.70;99.90;;;;;;4987056;28;20179;-71
2023/02/22 04:56:23;;;;;;;8.90;7.93;;;6.60;99.90;;;;;;4986845;28;20189;-72
2023/02/22 04:58:48;;;;;;;10.00;7.67;;;6.60;99.90;;;;;;4985753;28;20211;-71
2023/02/22 05:01:15;;;;;;;9.50;8.00;;;6.60;99.90;;;;;;4986372;28;20440;-72
2023/02/22 05:03:41;;;;;;;9.33;7.90;;;6.70;99.90;;;;;;4972144;28;20271;-71
2023/02/22 05:06:07;;;;;;;8.90;7.93;;;6.70;99.90;;;;;;4987238;28;20469;-72
2023/02/22 05:08:32;;;;;;;10.50;8.27;;;6.70;99.90;;;;;;4986751;28;20937;-72
2023/02/22 05:10:59;;;;;;;11.50;8.50;;;6.60;99.90;;;;;;4985868;28;20436;-73
2023/02/22 05:13:24;;;;;;;8.80;7.90;;;6.70;99.90;;;;;;4986851;28;20182;-73
2023/02/22 05:15:50;;;;;;;9.47;7.73;;;6.70;99.90;;;;;;4986372;28;21060;-72
2023/02/22 05:18:15;;;;;;;10.50;7.80;;;6.70;99.90;;;;;;4986756;28;20216;-70
2023/02/22 05:20:41;;;;;;;8.83;7.70;;;6.70;99.90;;;;;;4984433;28;20243;-72
2023/02/22 05:23:06;;;;;;;14.00;9.07;;;6.70;99.90;;;;;;4986547;28;20225;-72
2023/02/22 05:25:32;;;;;;;8.90;7.37;;;6.70;99.90;;;;;;4986233;28;20209;-72
2023/02/22 05:28:04;;;;;;;9.47;7.83;;;6.70;99.90;;;;;;4986162;28;20202;-72
2023/02/22 05:30:33;;;;;;;8.07;7.27;;;6.60;99.90;;;;;;4977319;28;20181;-73
2023/02/22 05:32:59;;;;;;;9.47;7.67;;;6.60;99.90;;;;;;4985740;28;20411;-71
2023/02/22 05:35:25;;;;;;;12.30;9.57;;;6.70;99.90;;;;;;4985915;28;20491;-73
2023/02/22 05:37:51;;;;;;;10.30;8.50;;;6.60;99.90;;;;;;4986044;28;20428;-72
2023/02/22 05:40:18;;;;;;;11.40;9.00;;;6.60;99.90;;;;;;4986593;28;20422;-72
2023/02/22 05:42:44;;;;;;;13.33;8.90;;;6.50;99.90;;;;;;4986140;28;20768;-72
2023/02/22 05:45:12;;;;;;;14.83;9.77;;;6.50;99.90;;;;;;4968297;28;20487;-72
2023/02/22 05:47:38;;;;;;;10.80;8.90;;;6.60;99.90;;;;;;4986105;28;20559;-72
2023/02/22 05:50:04;;;;;;;11.37;8.97;;;6.50;99.90;;;;;;4990723;23;20496;-70
2023/02/22 05:52:30;;;;;;;14.80;9.87;;;6.60;99.90;;;;;;4984644;28;20235;-69
2023/02/22 05:54:56;;;;;;;10.77;9.07;;;6.70;99.90;;;;;;4984365;28;20838;-69
2023/02/22 05:57:21;;;;;;;11.43;9.40;;;6.70;99.90;;;;;;4983698;28;20192;-70
2023/02/22 05:59:47;;;;;;;10.97;9.13;;;6.60;99.90;;;;;;4984011;28;20202;-68
2023/02/22 06:02:12;;;;;;;11.17;8.83;;;6.60;99.90;;;;;;4983793;28;20179;-70
2023/02/22 06:04:38;;;;;;;11.93;10.03;;;6.60;99.90;;;;;;4984031;28;20186;-70
2023/02/22 06:07:05;;;;;;;10.97;8.67;;;6.60;99.90;;;;;;4984495;28;20600;-73
2023/02/22 06:09:31;;;;;;;12.40;9.30;;;6.50;99.90;;;;;;4983953;28;20911;-70
2023/02/22 06:11:56;;;;;;;13.67;11.63;;;6.50;99.90;;;;;;4983652;28;20420;-71
2023/02/22 06:14:23;;;;;;;16.47;11.83;;;6.50;99.90;;;;;;4983952;28;20181;-70
2023/02/22 06:16:53;;;;;;;17.23;13.30;;;6.50;99.90;;;;;;4983803;28;20216;-69
2023/02/22 06:19:19;;;;;;;14.63;12.07;;;6.60;99.90;;;;;;4983165;28;20574;-69
2023/02/22 06:21:58;;;;;;;13.03;10.73;;;6.60;99.90;;;;;;4983828;28;20890;-72
2023/02/22 06:24:25;;;;;;;12.20;10.33;;;6.60;99.90;;;;;;4984151;28;20213;-72
2023/02/22 06:26:55;;;;;;;14.50;10.67;;;6.50;99.90;;;;;;4983529;28;20460;-70
2023/02/22 06:29:22;;;;;;;15.53;10.90;;;6.60;99.90;;;;;;4983342;28;20956;-70
2023/02/22 06:31:48;;;;;;;13.13;10.63;;;6.70;99.90;;;;;;4983424;28;20851;-69
2023/02/22 06:34:14;;;;;;;19.00;11.07;;;6.60;99.90;;;;;;4983178;28;20410;-70
2023/02/22 06:36:41;;;;;;;13.00;10.40;;;6.70;99.90;;;;;;4983819;28;20203;-69
2023/02/22 06:39:09;;;;;;;15.03;9.57;;;6.70;99.90;;;;;;4983597;28;20559;-71
2023/02/22 06:41:36;;;;;;;14.80;10.37;;;6.70;99.90;;;;;;4983717;28;20927;-71
2023/02/22 06:44:02;;;;;;;11.10;9.27;;;6.70;99.90;;;;;;4983647;28;20989;-70
2023/02/22 06:46:28;;;;;;;11.73;10.13;;;6.70;99.90;;;;;;4983504;28;20878;-69
2023/02/22 06:48:54;;;;;;;11.50;9.80;;;6.80;99.90;;;;;;4983145;28;20353;-69
2023/02/22 06:51:20;;;;;;;13.50;8.80;;;6.70;99.90;;;;;;4983378;28;20491;-68
2023/02/22 06:53:46;;;;;;;10.50;9.47;;;6.80;99.90;;;;;;4983957;28;20205;-69
2023/02/22 06:56:12;;;;;;;10.13;8.40;;;6.90;99.90;;;;;;4982703;28;20900;-72
2023/02/22 06:58:37;;;;;;;10.50;9.50;;;6.90;99.90;;;;;;4983203;28;20710;-71
2023/02/22 07:01:03;;;;;;;13.13;9.40;;;6.90;99.90;;;;;;4981444;28;20209;-69
2023/02/22 07:03:28;;;;;;;11.70;10.50;;;6.90;99.90;;;;;;4983068;28;20271;-70
2023/02/22 07:05:54;;;;;;;16.53;11.40;;;7.00;99.90;;;;;;4983201;28;20287;-70
2023/02/22 07:08:20;;;;;;;10.33;9.17;;;7.00;99.90;;;;;;4967111;28;20187;-72
2023/02/22 07:10:45;;;;;;;11.53;8.90;;;7.10;99.90;;;;;;4983108;28;20672;-70
2023/02/22 07:13:11;;;;;;;10.87;9.60;;;7.10;99.90;;;;;;4982826;28;20182;-70
2023/02/22 07:15:36;;;;;;;12.60;9.23;;;7.20;99.90;;;;;;4983181;28;20608;-72
2023/02/22 07:18:02;;;;;;;10.63;8.67;;;7.30;99.90;;;;;;4983328;28;20216;-73
2023/02/22 07:20:30;;;;;;;12.43;10.37;;;7.40;99.90;;;;;;4982416;28;20237;-70
2023/02/22 07:22:55;;;;;;;11.90;10.70;;;7.40;99.90;;;;;;4983439;28;20416;-70
2023/02/22 07:25:22;;;;;;;12.00;9.37;;;7.40;99.90;;;;;;4982757;28;20489;-71
2023/02/22 07:27:48;;;;;;;9.43;8.37;;;7.50;99.90;;;;;;4983569;28;20182;-69
2023/02/22 07:30:18;;;;;;;12.57;9.07;;;7.60;99.90;;;;;;4965540;28;20919;-70
2023/02/22 07:32:44;;;;;;;10.10;9.10;;;7.60;99.90;;;;;;4983092;28;20200;-72
2023/02/22 07:35:15;;;;;;;11.03;9.37;;;7.80;99.90;;;;;;4982557;28;20788;-72
2023/02/22 07:37:41;;;;;;;9.63;7.90;;;7.90;99.90;;;;;;4983285;28;20425;-69
2023/02/22 07:40:07;;;;;;;9.77;7.70;;;8.00;99.90;;;;;;4982932;28;20435;-71
2023/02/22 07:42:32;;;;;;;8.50;7.70;;;8.10;99.90;;;;;;4983451;28;20270;-69
2023/02/22 07:44:58;;;;;;;9.97;8.20;;;8.20;99.90;;;;;;4981806;28;20461;-68
2023/02/22 07:47:23;;;;;;;10.80;8.60;;;8.30;99.90;;;;;;4983273;28;20194;-70
2023/02/22 07:49:49;;;;;;;11.13;8.80;;;8.50;99.90;;;;;;4982342;28;20219;-72
2023/02/22 07:52:16;;;;;;;9.47;8.43;;;8.60;99.90;;;;;;4982796;28;20271;-71
2023/02/22 07:54:44;;;;;;;13.37;10.90;;;8.70;99.90;;;;;;4983322;28;20196;-69
2023/02/22 07:57:12;;;;;;;11.57;8.93;;;8.60;99.90;;;;;;4983027;28;20477;-69
2023/02/22 07:59:37;;;;;;;13.40;9.23;;;8.80;99.90;;;;;;4982729;28;20511;-70
2023/02/22 08:02:03;;;;;;;11.43;9.97;;;9.00;99.90;;;;;;4983094;28;20439;-70
2023/02/22 08:04:29;;;;;;;12.23;9.43;;;9.20;99.90;;;;;;4982215;28;20629;-71
2023/02/22 08:06:55;;;;;;;12.90;9.20;;;9.20;99.90;;;;;;4983366;28;20458;-72
2023/02/22 08:09:22;;;;;;;13.30;9.80;;;8.90;99.90;;;;;;4982898;28;20196;-74
2023/02/22 08:11:48;;;;;;;18.17;11.10;;;9.10;99.90;;;;;;4982693;28;20422;-72
2023/02/22 08:14:16;;;;;;;12.20;10.90;;;9.30;99.90;;;;;;4981788;28;20535;-71
2023/02/22 08:16:41;;;;;;;11.50;10.23;;;9.30;99.90;;;;;;4982387;28;20174;-71
2023/02/22 08:19:07;;;;;;;12.40;9.70;;;9.40;99.90;;;;;;4981816;28;20454;-73
2023/02/22 08:21:32;;;;;;;14.83;11.47;;;9.70;99.90;;;;;;4982724;28;20892;-69
2023/02/22 08:23:58;;;;;;;14.33;10.07;;;9.80;99.90;;;;;;4982619;28;20220;-71
2023/02/22 08:26:24;;;;;;;16.23;11.17;;;10.00;99.90;;;;;;4982085;28;20204;-71
2023/02/22 08:28:49;;;;;;;16.30;10.80;;;10.10;99.90;;;;;;4982195;28;20265;-72
2023/02/22 08:31:15;;;;;;;12.40;10.00;;;10.20;99.90;;;;;;4982614;28;20460;-69
2023/02/22 08:33:41;;;;;;;12.57;9.90;;;10.20;99.90;;;;;;4984546;28;20650;-70
2023/02/22 08:36:07;;;;;;;13.53;10.90;;;10.40;99.90;;;;;;4986120;28;20563;-69
2023/02/22 08:38:33;;;;;;;13.30;10.77;;;10.50;99.90;;;;;;4968113;28;20429;-69
2023/02/22 08:40:59;;;;;;;13.07;10.10;;;10.60;99.90;;;;;;4967897;28;20176;-70
2023/02/22 08:43:25;;;;;;;15.23;9.87;;;10.70;99.90;;;;;;4985952;28;20450;-70
2023/02/22 08:45:50;;;;;;;12.83;9.83;;;10.80;99.90;;;;;;4986005;28;20200;-75
2023/02/22 08:48:17;;;;;;;15.50;9.97;;;10.90;99.90;;;;;;4985580;28;20423;-70
2023/02/22 08:50:43;;;;;;;10.17;9.17;;;10.90;99.90;;;;;;4985694;28;20273;-75
2023/02/22 08:53:10;;;;;;;10.50;9.20;;;11.00;99.90;;;;;;4986277;28;20419;-69
2023/02/22 08:55:37;;;;;;;11.43;9.80;;;11.10;99.90;;;;;;4985649;28;20416;-73
2023/02/22 08:58:04;;;;;;;10.10;8.77;;;11.10;99.90;;;;;;4985965;28;20959;-73
2023/02/22 09:00:32;;;;;;;15.13;10.23;;;11.20;99.90;;;;;;4985822;28;20528;-72
2023/02/22 09:03:06;;;;;;;16.87;11.37;;;11.30;99.90;;;;;;4985738;28;20428;-71
2023/02/22 09:05:32;;;;;;;11.77;10.27;;;10.80;99.90;;;;;;4986119;28;20455;-70
2023/02/22 09:07:59;;;;;;;18.30;11.60;;;10.40;99.90;;;;;;4986590;28;20992;-71
2023/02/22 09:10:30;;;;;;;13.13;11.07;;;10.30;99.90;;;;;;4985580;28;20331;-70
2023/02/22 09:12:56;;;;;;;11.97;10.77;;;10.30;99.90;;;;;;4986059;28;20499;-71
2023/02/22 09:15:23;;;;;;;12.60;10.03;;;10.60;99.90;;;;;;4986102;28;20485;-74
2023/02/22 09:17:49;;;;;;;13.53;10.60;;;10.40;99.90;;;;;;4985688;28;20447;-70
2023/02/22 09:20:17;;;;;;;17.40;11.00;;;10.30;99.90;;;;;;4985316;28;20767;-70
2023/02/22 09:22:47;;;;;;;14.80;10.47;;;10.30;99.90;;;;;;4985469;28;20415;-76
2023/02/22 09:25:13;;;;;;;12.63;10.57;;;10.30;99.90;;;;;;4984976;28;21156;-77
2023/02/22 09:27:39;;;;;;;14.40;11.20;;;10.40;99.90;;;;;;4985087;28;20529;-68
2023/02/22 09:30:05;;;;;;;13.20;10.80;;;10.60;99.90;;;;;;4985481;28;20258;-69
2023/02/22 09:32:31;;;;;;;12.47;10.50;;;10.80;99.90;;;;;;4985154;28;20264;-68
2023/02/22 09:34:56;;;;;;;13.37;10.87;;;10.90;99.90;;;;;;4985052;28;20509;-70
2023/02/22 09:37:22;;;;;;;13.40;10.03;;;10.90;99.90;;;;;;4985137;28;20202;-72
2023/02/22 09:39:48;;;;;;;15.70;10.10;;;10.60;99.90;;;;;;4984481;28;20251;-69
2023/02/22 09:42:48;;;;;;;13.63;10.27;;;10.80;99.90;;;;;;4985073;28;20624;-69
2023/02/22 09:45:21;;;;;;;13.10;10.53;;;11.20;99.90;;;;;;4979789;28;20228;-69
2023/02/22 09:47:55;;;;;;;11.70;9.13;;;11.60;99.90;;;;;;4985097;28;20425;-69
2023/02/22 09:50:43;;;;;;;13.60;9.53;;;11.80;99.90;;;;;;4985073;28;20469;-69
2023/02/22 09:53:28;;;;;;;13.60;8.90;;;11.40;99.90;;;;;;4985239;28;20897;-70
2023/02/22 09:55:59;;;;;;;10.97;8.23;;;11.20;99.90;;;;;;4983599;28;20511;-69
2023/02/22 09:58:32;;;;;;;10.80;8.60;;;11.40;99.90;;;;;;4984371;28;20407;-71
2023/02/22 10:01:27;;;;;;;11.57;9.13;;;11.50;99.90;;;;;;4984817;28;20458;-69
2023/02/22 10:03:59;;;;;;;10.83;8.70;;;11.90;99.90;;;;;;4984394;28;20822;-69
2023/02/22 10:06:25;;;;;;;10.37;8.50;;;12.00;99.90;;;;;;4967075;28;20469;-70
2023/02/22 10:08:55;;;;;;;9.63;8.30;;;12.10;99.90;;;;;;4984237;28;20866;-70
2023/02/22 10:11:36;;;;;;;12.07;9.80;;;12.40;99.90;;;;;;4983844;28;20900;-71
2023/02/22 10:14:29;;;;;;;8.63;7.50;;;12.80;99.90;;;;;;4983677;28;20549;-74
2023/02/22 10:17:23;;;;;;;9.80;7.87;;;12.90;99.90;;;;;;4984390;28;20516;-69
2023/02/22 10:20:00;;;;;;;13.93;9.37;;;12.80;99.90;;;;;;4984236;28;20429;-71
2023/02/22 10:22:34;;;;;;;11.40;8.60;;;13.30;99.90;;;;;;4984160;28;20415;-74
2023/02/22 10:25:06;;;;;;;10.33;9.23;;;13.50;99.90;;;;;;4966462;28;20446;-69
2023/02/22 10:28:02;;;;;;;17.40;8.87;;;13.50;99.90;;;;;;4983614;28;20421;-74
2023/02/22 10:30:55;;;;;;;11.80;9.80;;;13.80;99.90;;;;;;4966684;28;20855;-70
2023/02/22 10:33:30;;;;;;;10.87;8.83;;;13.90;99.90;;;;;;4981948;28;20508;-69
2023/02/22 10:35:56;;;;;;;8.63;7.73;;;14.10;99.90;;;;;;4984164;28;20822;-70
2023/02/22 10:38:25;;;;;;;13.67;9.00;;;14.30;99.90;;;;;;4983562;28;20455;-70
2023/02/22 10:40:55;;;;;;;14.90;10.40;;;14.70;99.90;;;;;;4978961;28;20550;-72
2023/02/22 10:43:22;;;;;;;22.40;11.23;;;14.80;99.90;;;;;;4983950;28;20417;-76
2023/02/22 10:45:54;;;;;;;13.60;9.93;;;15.10;99.90;;;;;;4983904;28;20461;-70
2023/02/22 10:48:21;;;;;;;9.93;8.57;;;14.90;99.90;;;;;;4983843;28;20412;-70
2023/02/22 10:50:49;;;;;;;13.90;8.27;;;14.90;99.90;;;;;;4984165;28;20469;-72
2023/02/22 10:53:15;;;;;;;11.80;8.87;;;14.90;99.90;;;;;;4983612;28;20411;-70
2023/02/22 10:56:15;;;;;;;11.87;9.83;;;14.80;99.90;;;;;;4983751;28;20420;-71
2023/02/22 10:58:48;;;;;;;11.53;8.73;;;15.00;99.90;;;;;;4984106;28;20431;-70
2023/02/22 11:01:31;;;;;;;18.00;11.43;;;15.50;99.90;;;;;;4984653;28;20445;-70
2023/02/22 11:04:05;;;;;;;11.87;9.57;;;14.90;99.90;;;;;;4984211;28;20419;-74
2023/02/22 11:06:33;;;;;;;10.50;9.40;;;14.90;99.90;;;;;;4983782;28;20943;-69
2023/02/22 11:09:12;;;;;;;14.00;9.80;;;14.90;99.90;;;;;;4983923;28;20488;-70
2023/02/22 11:11:41;;;;;;;13.13;9.57;;;15.20;99.90;;;;;;4984150;28;20489;-70
2023/02/22 11:14:09;;;;;;;12.50;9.70;;;15.10;99.90;;;;;;4983582;28;20423;-71
2023/02/22 11:16:50;;;;;;;11.33;9.80;;;14.90;99.90;;;;;;4983581;28;20424;-71
2023/02/22 11:19:23;;;;;;;14.27;10.03;;;15.30;99.90;;;;;;4984078;28;20522;-70
2023/02/22 11:21:51;;;;;;;12.73;11.20;;;15.70;99.90;;;;;;4983472;28;20438;-71
2023/02/22 11:24:19;;;;;;;14.67;9.43;;;16.30;99.60;;;;;;4983921;28;20502;-71
2023/02/22 11:26:50;;;;;;;12.77;9.97;;;16.50;98.80;;;;;;4983419;28;20827;-72
2023/02/22 11:29:21;;;;;;;11.10;9.70;;;16.40;99.10;;;;;;4983387;28;20474;-68
2023/02/22 11:31:50;;;;;;;13.20;9.10;;;16.30;98.90;;;;;;4983676;28;20949;-68
2023/02/22 11:34:38;;;;;;;9.73;8.80;;;16.00;99.40;;;;;;4983709;28;20400;-69
2023/02/22 11:37:32;;;;;;;10.97;9.17;;;16.40;98.70;;;;;;4983893;28;20880;-68
2023/02/22 11:40:17;;;;;;;13.73;11.47;;;17.40;98.00;;;;;;4979141;28;20440;-67
2023/02/22 11:42:42;;;;;;;12.00;9.97;;;17.10;97.70;;;;;;4982226;28;20412;-67
2023/02/22 11:45:22;;;;;;;11.07;9.77;;;16.90;98.10;;;;;;4965612;28;20460;-70
2023/02/22 11:47:55;;;;;;;16.80;11.47;;;17.20;98.20;;;;;;4983153;28;20172;-68
2023/02/22 11:50:32;;;;;;;16.33;10.17;;;17.80;97.10;;;;;;4982731;28;20475;-68
2023/02/22 11:53:08;;;;;;;12.27;11.07;;;18.10;96.90;;;;;;4982735;28;20424;-69
2023/02/22 11:56:10;;;;;;;11.93;10.50;;;18.40;96.60;;;;;;4982934;28;20407;-69
2023/02/22 11:59:25;;;;;;;13.57;11.20;;;17.30;97.10;;;;;;4982355;28;20917;-68
2023/02/22 12:01:54;;;;;;;11.83;10.40;;;16.50;98.40;;;;;;4909008;28;20431;-67
2023/02/22 12:04:48;;;;;;;12.27;10.97;;;16.50;98.70;;;;;;4982600;28;20930;-69
2023/02/22 12:07:25;;;;;;;12.27;11.17;;;17.00;98.20;;;;;;4984570;28;21052;-67
2023/02/22 12:10:18;;;;;;;14.10;11.43;;;16.50;98.70;;;;;;4986411;28;20423;-67
2023/02/22 12:13:00;;;;;;;13.67;10.67;;;16.80;98.60;;;;;;4985801;28;20426;-69
2023/02/22 12:15:43;;;;;;;15.43;11.83;;;18.20;97.10;;;;;;4986504;28;20399;-67
2023/02/22 12:18:38;;;;;;;11.17;10.07;;;17.90;97.00;;;;;;4986448;28;20403;-69
2023/02/22 12:21:12;;;;;;;17.87;12.70;;;17.90;97.40;;;;;;4986153;28;20565;-68
2023/02/22 12:23:49;;;;;;;12.43;11.03;;;19.30;95.60;;;;;;4986017;28;20983;-68
2023/02/22 12:26:18;;;;;;;11.77;10.57;;;18.80;95.30;;;;;;4986901;28;20450;-67
2023/02/22 12:28:58;;;;;;;13.30;10.70;;;18.40;95.90;;;;;;4986687;28;20451;-70
2023/02/22 12:31:50;;;;;;;12.13;10.37;;;18.40;95.70;;;;;;4986921;28;20402;-71
2023/02/22 12:34:24;;;;;;;15.00;9.57;;;18.40;95.90;;;;;;4985832;28;20431;-68
2023/02/22 12:37:13;;;;;;;13.07;11.77;;;18.70;95.80;;;;;;4986092;28;20819;-71
2023/02/22 12:40:12;;;;;;;13.63;11.53;;;18.30;95.80;;;;;;4985520;28;20478;-70
2023/02/22 12:42:48;;;;;;;14.00;11.53;;;18.50;96.10;;;;;;4985286;28;20726;-68
2023/02/22 12:45:44;;;;;;;12.07;10.77;;;18.70;95.30;;;;;;4985393;28;20892;-70
2023/02/22 12:48:22;;;;;;;13.33;11.77;;;18.50;95.70;;;;;;4985927;28;20494;-69
2023/02/22 12:50:54;;;;;;;12.43;11.13;;;18.80;95.60;;;;;;4986037;28;20894;-69
2023/02/22 12:53:33;;;;;;;18.13;12.20;;;19.00;94.60;;;;;;4985498;28;20558;-69
2023/02/22 12:56:26;;;;;;;15.20;10.93;;;18.20;95.10;;;;;;4985473;28;20415;-67
2023/02/22 12:59:02;;;;;;;12.90;11.53;;;18.20;95.90;;;;;;4985496;28;20432;-69
2023/02/22 13:01:35;;;;;;;12.47;10.67;;;18.80;94.50;;;;;;4985083;28;20506;-74
2023/02/22 13:04:03;;;;;;;15.30;11.50;;;18.80;94.70;;;;;;4985469;28;20404;-68